Terminal Aerodrome Forecast
Issued by NWS Detroit/Pontiac, MI

Home | Current Version | Previous Version | Text Only | Print | Product List | Glossary On
Versions: 1 2 3 4 5 6 7 8 9 10 11 12 13 14 15 16 17 18
000
FTUS43 KDTX 011736
TAFFNT
TAF
KFNT 011736Z 0118/0218 02008KT P6SM OVC006
     FM011900 03010KT P6SM OVC012
     FM020600 03006KT 5SM -RA BR OVC007
     FM021100 02006KT 5SM BR OVC007
     FM021500 03012KT P6SM SCT015 OVC025=

USA.gov is the U.S. government's official web portal to all federal, state and local government web resources and services.